utilisation pie
utilisation bar
humidity graph
temperature graph
Station id: f3370e for 2 days

start:   stop:  

day time in temp out temp in RH out RH H quota rule action
2020-08-06 00:14:19 19.5 18.7 67 81 116 h 0
2020-08-06 00:44:31 19.4 18.3 67 82 114 h 0
2020-08-06 01:14:43 19.3 18.1 67 82 114 h 0
2020-08-06 01:44:55 19.3 18.1 67 83 116 h 0
2020-08-06 02:15:07 19.2 18.2 67 82 116 h 0
2020-08-06 02:45:19 19.1 18.4 67 83 119 h 0
2020-08-06 03:15:32 19.1 18.2 67 82 117 h 0
2020-08-06 03:45:44 19.1 18.1 67 82 116 h 0
2020-08-06 04:15:56 19.0 17.8 67 82 115 h 0
2020-08-06 04:46:08 18.9 17.2 67 84 114 h 0
2020-08-06 05:16:35 18.9 17.3 67 83 113 h 0
2020-08-06 05:46:47 18.8 16.9 67 83 111 h 0
2020-08-06 06:16:59 18.7 16.2 67 86 111 h 0
2020-08-06 06:47:25 18.6 16.3 67 86 112 h 0
2020-08-06 07:17:48 18.6 16.8 67 86 116 h 0
2020-08-06 07:48:12 18.5 18.0 67 83 121 h 0
2020-08-06 08:18:25 18.6 19.1 67 81 125 h 0
2020-08-06 08:48:37 18.7 20.4 67 79 130 h 0
2020-08-06 09:18:49 18.9 21.7 68 76 132 h 0
2020-08-06 09:49:02 19.2 22.6 70 73 127 h 0
2020-08-06 10:19:14 19.8 24.0 70 67 122 h 0
2020-08-06 10:49:26 20.0 24.8 71 61 113 h 0
2020-08-06 11:19:38 20.4 25.5 71 57 107 h 0
2020-08-06 11:49:50 20.9 26.0 70 57 108 h 0
2020-08-06 12:20:02 21.5 26.3 66 55 109 h 0
2020-08-06 12:50:15 22.0 27.5 64 47 100 h 0
2020-08-06 13:20:27 22.6 27.9 57 42 99 h 0
2020-08-06 13:50:39 23.0 27.7 54 40 96 h 0
2020-08-06 14:20:51 23.2 28.0 52 39 97 h 0
2020-08-06 14:51:03 23.6 28.4 52 40 101 h 0
2020-08-06 15:21:15 24.1 28.4 50 40 102 h 0
2020-08-06 15:51:28 24.6 28.5 49 39 100 h 0
2020-08-06 16:21:40 25.0 28.6 47 39 100 h 0
2020-08-06 16:51:52 25.0 27.9 46 40 103 h 0
2020-08-06 17:22:04 24.9 27.5 48 41 100 h 0
2020-08-06 17:52:16 25.0 28.2 48 40 100 h 0
2020-08-06 18:22:28 25.0 27.8 47 40 99 h 0
2020-08-06 18:52:41 25.1 26.9 47 43 102 h 0
2020-08-06 19:22:53 25.0 26.2 48 46 103 h 0
2020-08-06 19:53:05 24.8 25.6 49 50 107 h 0
2020-08-06 20:23:17 24.6 24.7 50 52 104 h 0
2020-08-06 20:53:29 24.5 23.6 52 54 99 h 0
2020-08-06 21:23:41 24.3 22.9 53 57 99 h 0
2020-08-06 21:53:54 24.1 22.2 54 60 100 h 0
2020-08-06 22:24:06 23.9 21.8 55 62 100 h 0
2020-08-06 22:54:18 23.8 21.1 56 63 96 h 0
2020-08-06 23:24:30 23.6 20.7 57 61 90 h 0
2020-08-06 23:54:42 23.5 20.5 58 61 89 h 0
2020-08-07 00:24:54 23.4 20.2 58 61 88 h 0
2020-08-07 00:55:07 23.2 19.9 58 61 87 h 0
2020-08-07 01:25:19 23.0 19.6 58 63 88 h 0
2020-08-07 01:55:31 22.9 19.3 59 64 89 h 0
2020-08-07 02:25:43 22.8 19.1 59 65 89 h 0
2020-08-07 02:55:56 22.6 18.9 59 66 90 h 0
2020-08-07 03:26:08 22.5 18.6 59 68 92 h 0
2020-08-07 03:56:20 22.3 18.1 59 68 90 h 0
2020-08-07 04:26:34 22.1 17.6 59 70 91 h 0
2020-08-07 04:56:46 22.0 17.4 59 71 91 h 0
2020-08-07 05:26:58 21.8 17.1 60 71 91 h 0
2020-08-07 05:57:10 21.6 17.0 60 71 91 h 0
2020-08-07 06:27:22 21.5 16.9 60 72 92 h 0
2020-08-07 06:57:43 21.3 16.8 60 73 94 h 0
2020-08-07 07:27:55 21.2 17.6 60 73 99 h 0
2020-08-07 07:58:07 21.1 18.7 60 71 103 h 0
2020-08-07 08:28:19 21.2 19.9 60 68 105 h 0
2020-08-07 08:58:31 21.3 21.6 61 65 109 h 0
2020-08-07 09:28:44 21.4 23.3 60 62 115 h 0
2020-08-07 09:58:56 21.7 24.4 60 61 118 h 0
2020-08-07 10:29:08 22.0 25.1 63 60 115 h 0
2020-08-07 10:59:20 22.3 25.8 63 58 113 h 0


2020-08-07 11:57:29 CEST